sensor_id;sensor_type;location;lat;lon;timestamp;temperature;humidity
3850;DHT22;1940;51.052;13.678;2024-01-30T00:00:55;2.90;85.30
3850;DHT22;1940;51.052;13.678;2024-01-30T00:03:20;2.90;85.30
3850;DHT22;1940;51.052;13.678;2024-01-30T00:05:46;2.90;85.30
3850;DHT22;1940;51.052;13.678;2024-01-30T00:08:11;2.90;85.30
3850;DHT22;1940;51.052;13.678;2024-01-30T00:10:37;2.80;85.40
3850;DHT22;1940;51.052;13.678;2024-01-30T00:13:02;2.80;85.40
3850;DHT22;1940;51.052;13.678;2024-01-30T00:15:28;2.80;85.60
3850;DHT22;1940;51.052;13.678;2024-01-30T00:17:53;2.90;85.50
3850;DHT22;1940;51.052;13.678;2024-01-30T00:20:20;2.80;85.50
3850;DHT22;1940;51.052;13.678;2024-01-30T00:22:45;2.90;85.30
3850;DHT22;1940;51.052;13.678;2024-01-30T00:25:11;2.90;85.20
3850;DHT22;1940;51.052;13.678;2024-01-30T00:27:36;2.90;85.00
3850;DHT22;1940;51.052;13.678;2024-01-30T00:30:02;2.90;85.00
3850;DHT22;1940;51.052;13.678;2024-01-30T00:32:28;2.80;85.30
3850;DHT22;1940;51.052;13.678;2024-01-30T00:34:53;2.80;85.10
3850;DHT22;1940;51.052;13.678;2024-01-30T00:37:19;2.80;85.20
3850;DHT22;1940;51.052;13.678;2024-01-30T00:39:44;2.80;85.20
3850;DHT22;1940;51.052;13.678;2024-01-30T00:42:10;2.80;85.20
3850;DHT22;1940;51.052;13.678;2024-01-30T00:44:36;2.80;85.20
3850;DHT22;1940;51.052;13.678;2024-01-30T00:47:04;2.80;85.20
3850;DHT22;1940;51.052;13.678;2024-01-30T00:49:29;2.80;85.10
3850;DHT22;1940;51.052;13.678;2024-01-30T00:51:55;2.80;85.20
3850;DHT22;1940;51.052;13.678;2024-01-30T00:54:20;2.80;85.10
3850;DHT22;1940;51.052;13.678;2024-01-30T00:56:46;2.70;85.30
3850;DHT22;1940;51.052;13.678;2024-01-30T00:59:11;2.80;85.30
3850;DHT22;1940;51.052;13.678;2024-01-30T01:01:37;2.80;85.20
3850;DHT22;1940;51.052;13.678;2024-01-30T01:04:02;2.70;85.20
3850;DHT22;1940;51.052;13.678;2024-01-30T01:06:28;2.70;85.30
3850;DHT22;1940;51.052;13.678;2024-01-30T01:08:53;2.70;85.60
3850;DHT22;1940;51.052;13.678;2024-01-30T01:11:19;2.70;85.60
3850;DHT22;1940;51.052;13.678;2024-01-30T01:13:44;2.70;85.40
3850;DHT22;1940;51.052;13.678;2024-01-30T01:16:10;2.70;85.20
3850;DHT22;1940;51.052;13.678;2024-01-30T01:18:35;2.70;85.10
3850;DHT22;1940;51.052;13.678;2024-01-30T01:21:01;2.70;85.10
3850;DHT22;1940;51.052;13.678;2024-01-30T01:23:26;2.70;85.00
3850;DHT22;1940;51.052;13.678;2024-01-30T01:25:52;2.70;85.10
3850;DHT22;1940;51.052;13.678;2024-01-30T01:28:17;2.70;84.80
3850;DHT22;1940;51.052;13.678;2024-01-30T01:30:43;2.70;84.70
3850;DHT22;1940;51.052;13.678;2024-01-30T01:33:09;2.80;84.50
3850;DHT22;1940;51.052;13.678;2024-01-30T01:35:35;2.70;84.60
3850;DHT22;1940;51.052;13.678;2024-01-30T01:38:01;2.70;84.60
3850;DHT22;1940;51.052;13.678;2024-01-30T01:40:27;2.70;84.70
3850;DHT22;1940;51.052;13.678;2024-01-30T01:42:54;2.70;84.50
3850;DHT22;1940;51.052;13.678;2024-01-30T01:45:20;2.70;84.60
3850;DHT22;1940;51.052;13.678;2024-01-30T01:47:49;2.70;84.50
3850;DHT22;1940;51.052;13.678;2024-01-30T01:50:16;2.70;84.50
3850;DHT22;1940;51.052;13.678;2024-01-30T01:52:48;2.70;84.60
3850;DHT22;1940;51.052;13.678;2024-01-30T01:55:15;2.70;84.60
3850;DHT22;1940;51.052;13.678;2024-01-30T01:57:42;2.60;84.70
3850;DHT22;1940;51.052;13.678;2024-01-30T02:00:09;2.60;84.80
3850;DHT22;1940;51.052;13.678;2024-01-30T02:02:36;2.60;84.90
3850;DHT22;1940;51.052;13.678;2024-01-30T02:05:02;2.60;84.90
3850;DHT22;1940;51.052;13.678;2024-01-30T02:07:30;2.60;84.90
3850;DHT22;1940;51.052;13.678;2024-01-30T02:09:56;2.60;84.90
3850;DHT22;1940;51.052;13.678;2024-01-30T02:12:22;2.50;85.00
3850;DHT22;1940;51.052;13.678;2024-01-30T02:14:48;2.50;85.10
3850;DHT22;1940;51.052;13.678;2024-01-30T02:17:15;2.60;85.00
3850;DHT22;1940;51.052;13.678;2024-01-30T02:19:40;2.60;85.00
3850;DHT22;1940;51.052;13.678;2024-01-30T02:22:07;2.60;84.90
3850;DHT22;1940;51.052;13.678;2024-01-30T02:24:33;2.60;85.10
3850;DHT22;1940;51.052;13.678;2024-01-30T02:26:58;2.60;84.90
3850;DHT22;1940;51.052;13.678;2024-01-30T02:29:24;2.60;85.00
3850;DHT22;1940;51.052;13.678;2024-01-30T02:31:50;2.60;84.90
3850;DHT22;1940;51.052;13.678;2024-01-30T02:34:15;2.60;84.90
3850;DHT22;1940;51.052;13.678;2024-01-30T02:36:44;2.70;85.00
3850;DHT22;1940;51.052;13.678;2024-01-30T02:39:09;2.70;84.60
3850;DHT22;1940;51.052;13.678;2024-01-30T02:41:35;2.60;84.60
3850;DHT22;1940;51.052;13.678;2024-01-30T02:44:02;2.60;84.80
3850;DHT22;1940;51.052;13.678;2024-01-30T02:46:27;2.60;84.90
3850;DHT22;1940;51.052;13.678;2024-01-30T02:48:53;2.60;84.90
3850;DHT22;1940;51.052;13.678;2024-01-30T02:51:18;2.60;84.80
3850;DHT22;1940;51.052;13.678;2024-01-30T02:53:44;2.60;85.00
3850;DHT22;1940;51.052;13.678;2024-01-30T02:56:09;2.60;84.90
3850;DHT22;1940;51.052;13.678;2024-01-30T02:58:36;2.50;85.10
3850;DHT22;1940;51.052;13.678;2024-01-30T03:01:02;2.50;85.00
3850;DHT22;1940;51.052;13.678;2024-01-30T03:03:27;2.50;85.00
3850;DHT22;1940;51.052;13.678;2024-01-30T03:05:53;2.50;85.10
3850;DHT22;1940;51.052;13.678;2024-01-30T03:08:19;2.50;85.10
3850;DHT22;1940;51.052;13.678;2024-01-30T03:10:44;2.50;85.10
3850;DHT22;1940;51.052;13.678;2024-01-30T03:13:09;2.50;85.10
3850;DHT22;1940;51.052;13.678;2024-01-30T03:15:35;2.50;85.00
3850;DHT22;1940;51.052;13.678;2024-01-30T03:18:01;2.50;85.00
3850;DHT22;1940;51.052;13.678;2024-01-30T03:20:27;2.50;85.20
3850;DHT22;1940;51.052;13.678;2024-01-30T03:22:53;2.50;85.10
3850;DHT22;1940;51.052;13.678;2024-01-30T03:25:19;2.40;85.20
3850;DHT22;1940;51.052;13.678;2024-01-30T03:27:44;2.40;85.20
3850;DHT22;1940;51.052;13.678;2024-01-30T03:30:10;2.40;85.60
3850;DHT22;1940;51.052;13.678;2024-01-30T03:32:35;2.40;85.50
3850;DHT22;1940;51.052;13.678;2024-01-30T03:35:01;2.40;85.60
3850;DHT22;1940;51.052;13.678;2024-01-30T03:37:26;2.40;85.60
3850;DHT22;1940;51.052;13.678;2024-01-30T03:39:52;2.40;85.60
3850;DHT22;1940;51.052;13.678;2024-01-30T03:42:17;2.40;85.50
3850;DHT22;1940;51.052;13.678;2024-01-30T03:44:43;2.40;85.40
3850;DHT22;1940;51.052;13.678;2024-01-30T03:47:08;2.40;85.50
3850;DHT22;1940;51.052;13.678;2024-01-30T03:49:34;2.30;85.60
3850;DHT22;1940;51.052;13.678;2024-01-30T03:51:59;2.30;85.90
3850;DHT22;1940;51.052;13.678;2024-01-30T03:54:24;2.30;85.80
3850;DHT22;1940;51.052;13.678;2024-01-30T03:56:50;2.40;85.50
3850;DHT22;1940;51.052;13.678;2024-01-30T03:59:15;2.40;85.70
3850;DHT22;1940;51.052;13.678;2024-01-30T04:01:42;2.40;85.40
3850;DHT22;1940;51.052;13.678;2024-01-30T04:04:08;2.30;85.50
3850;DHT22;1940;51.052;13.678;2024-01-30T04:06:33;2.30;85.70
3850;DHT22;1940;51.052;13.678;2024-01-30T04:08:59;2.30;85.70
3850;DHT22;1940;51.052;13.678;2024-01-30T04:11:24;2.30;85.60
3850;DHT22;1940;51.052;13.678;2024-01-30T04:13:50;2.30;85.60
3850;DHT22;1940;51.052;13.678;2024-01-30T04:16:20;2.30;85.80
3850;DHT22;1940;51.052;13.678;2024-01-30T04:18:46;2.30;85.70
3850;DHT22;1940;51.052;13.678;2024-01-30T04:21:11;2.20;85.90
3850;DHT22;1940;51.052;13.678;2024-01-30T04:23:37;2.30;85.80
3850;DHT22;1940;51.052;13.678;2024-01-30T04:26:02;2.30;85.70
3850;DHT22;1940;51.052;13.678;2024-01-30T04:28:28;2.20;85.80
3850;DHT22;1940;51.052;13.678;2024-01-30T04:30:54;2.20;85.90
3850;DHT22;1940;51.052;13.678;2024-01-30T04:33:19;2.20;85.90
3850;DHT22;1940;51.052;13.678;2024-01-30T04:35:45;2.20;85.90
3850;DHT22;1940;51.052;13.678;2024-01-30T04:38:10;2.20;86.10
3850;DHT22;1940;51.052;13.678;2024-01-30T04:40:36;2.20;86.10
3850;DHT22;1940;51.052;13.678;2024-01-30T04:43:01;2.20;86.10
3850;DHT22;1940;51.052;13.678;2024-01-30T04:45:26;2.20;86.10
3850;DHT22;1940;51.052;13.678;2024-01-30T04:47:52;2.20;86.30
3850;DHT22;1940;51.052;13.678;2024-01-30T04:50:18;2.20;86.20
3850;DHT22;1940;51.052;13.678;2024-01-30T04:52:44;2.20;86.10
3850;DHT22;1940;51.052;13.678;2024-01-30T04:55:09;2.20;86.20
3850;DHT22;1940;51.052;13.678;2024-01-30T04:57:35;2.20;86.10
3850;DHT22;1940;51.052;13.678;2024-01-30T05:00:00;2.20;86.20
3850;DHT22;1940;51.052;13.678;2024-01-30T05:02:27;2.10;86.20
3850;DHT22;1940;51.052;13.678;2024-01-30T05:04:52;2.20;86.40
3850;DHT22;1940;51.052;13.678;2024-01-30T05:07:18;2.20;86.30
3850;DHT22;1940;51.052;13.678;2024-01-30T05:09:43;2.20;86.30
3850;DHT22;1940;51.052;13.678;2024-01-30T05:12:09;2.20;86.30
3850;DHT22;1940;51.052;13.678;2024-01-30T05:14:34;2.20;86.30
3850;DHT22;1940;51.052;13.678;2024-01-30T05:17:00;2.10;86.40
3850;DHT22;1940;51.052;13.678;2024-01-30T05:19:25;2.10;86.60
3850;DHT22;1940;51.052;13.678;2024-01-30T05:21:51;2.00;86.90
3850;DHT22;1940;51.052;13.678;2024-01-30T05:24:16;2.00;87.10
3850;DHT22;1940;51.052;13.678;2024-01-30T05:26:42;2.10;86.90
3850;DHT22;1940;51.052;13.678;2024-01-30T05:29:07;2.00;87.00
3850;DHT22;1940;51.052;13.678;2024-01-30T05:31:33;2.00;87.10
3850;DHT22;1940;51.052;13.678;2024-01-30T05:33:59;2.10;87.20
3850;DHT22;1940;51.052;13.678;2024-01-30T05:36:25;2.10;87.00
3850;DHT22;1940;51.052;13.678;2024-01-30T05:38:50;2.00;87.10
3850;DHT22;1940;51.052;13.678;2024-01-30T05:41:16;2.00;87.30
3850;DHT22;1940;51.052;13.678;2024-01-30T05:43:41;2.00;87.30
3850;DHT22;1940;51.052;13.678;2024-01-30T05:46:07;2.00;87.20
3850;DHT22;1940;51.052;13.678;2024-01-30T05:48:38;2.00;87.10
3850;DHT22;1940;51.052;13.678;2024-01-30T05:51:04;2.10;87.10
3850;DHT22;1940;51.052;13.678;2024-01-30T05:53:30;2.00;87.20
3850;DHT22;1940;51.052;13.678;2024-01-30T05:55:55;2.00;87.30
3850;DHT22;1940;51.052;13.678;2024-01-30T05:58:21;2.00;87.30
3850;DHT22;1940;51.052;13.678;2024-01-30T06:00:47;2.00;87.40
3850;DHT22;1940;51.052;13.678;2024-01-30T06:03:12;2.10;87.10
3850;DHT22;1940;51.052;13.678;2024-01-30T06:05:38;2.00;87.20
3850;DHT22;1940;51.052;13.678;2024-01-30T06:08:03;2.10;87.30
3850;DHT22;1940;51.052;13.678;2024-01-30T06:10:29;2.10;87.40
3850;DHT22;1940;51.052;13.678;2024-01-30T06:12:54;2.10;87.10
3850;DHT22;1940;51.052;13.678;2024-01-30T06:15:20;2.10;87.30
3850;DHT22;1940;51.052;13.678;2024-01-30T06:17:46;2.10;87.20
3850;DHT22;1940;51.052;13.678;2024-01-30T06:20:11;2.10;87.20
3850;DHT22;1940;51.052;13.678;2024-01-30T06:22:37;2.20;87.10
3850;DHT22;1940;51.052;13.678;2024-01-30T06:25:02;2.10;87.10
3850;DHT22;1940;51.052;13.678;2024-01-30T06:27:28;2.10;87.30
3850;DHT22;1940;51.052;13.678;2024-01-30T06:29:53;2.10;87.20
3850;DHT22;1940;51.052;13.678;2024-01-30T06:32:19;2.10;87.20
3850;DHT22;1940;51.052;13.678;2024-01-30T06:34:44;2.10;87.40
3850;DHT22;1940;51.052;13.678;2024-01-30T06:37:10;2.20;87.10
3850;DHT22;1940;51.052;13.678;2024-01-30T06:39:35;2.20;87.00
3850;DHT22;1940;51.052;13.678;2024-01-30T06:42:01;2.20;86.90
3850;DHT22;1940;51.052;13.678;2024-01-30T06:44:26;2.30;86.70
3850;DHT22;1940;51.052;13.678;2024-01-30T06:46:52;2.30;86.70
3850;DHT22;1940;51.052;13.678;2024-01-30T06:49:17;2.30;86.50
3850;DHT22;1940;51.052;13.678;2024-01-30T06:51:43;2.30;86.50
3850;DHT22;1940;51.052;13.678;2024-01-30T06:54:09;2.40;86.30
3850;DHT22;1940;51.052;13.678;2024-01-30T06:56:34;2.40;86.20
3850;DHT22;1940;51.052;13.678;2024-01-30T06:59:00;2.40;86.20
3850;DHT22;1940;51.052;13.678;2024-01-30T07:01:29;2.40;86.10
3850;DHT22;1940;51.052;13.678;2024-01-30T07:03:55;2.50;86.00
3850;DHT22;1940;51.052;13.678;2024-01-30T07:06:20;2.50;85.70
3850;DHT22;1940;51.052;13.678;2024-01-30T07:08:46;2.60;85.60
3850;DHT22;1940;51.052;13.678;2024-01-30T07:11:21;2.60;85.30
3850;DHT22;1940;51.052;13.678;2024-01-30T07:13:47;2.70;84.90
3850;DHT22;1940;51.052;13.678;2024-01-30T07:16:14;2.70;85.10
3850;DHT22;1940;51.052;13.678;2024-01-30T07:18:39;2.80;84.60
3850;DHT22;1940;51.052;13.678;2024-01-30T07:21:05;2.80;84.50
3850;DHT22;1940;51.052;13.678;2024-01-30T07:23:30;2.90;84.20
3850;DHT22;1940;51.052;13.678;2024-01-30T07:25:56;2.90;84.20
3850;DHT22;1940;51.052;13.678;2024-01-30T07:28:21;3.00;84.00
3850;DHT22;1940;51.052;13.678;2024-01-30T07:30:47;3.00;83.80
3850;DHT22;1940;51.052;13.678;2024-01-30T07:33:13;3.00;83.80
3850;DHT22;1940;51.052;13.678;2024-01-30T07:35:39;3.10;83.50
3850;DHT22;1940;51.052;13.678;2024-01-30T07:38:04;3.20;83.30
3850;DHT22;1940;51.052;13.678;2024-01-30T07:40:30;3.20;82.90
3850;DHT22;1940;51.052;13.678;2024-01-30T07:42:55;3.30;82.70
3850;DHT22;1940;51.052;13.678;2024-01-30T07:45:21;3.40;82.40
3850;DHT22;1940;51.052;13.678;2024-01-30T07:47:49;3.40;82.10
3850;DHT22;1940;51.052;13.678;2024-01-30T07:50:16;3.50;82.10
3850;DHT22;1940;51.052;13.678;2024-01-30T07:52:45;3.50;81.60
3850;DHT22;1940;51.052;13.678;2024-01-30T07:55:10;3.60;81.60
3850;DHT22;1940;51.052;13.678;2024-01-30T07:57:38;3.80;81.20
3850;DHT22;1940;51.052;13.678;2024-01-30T08:00:04;3.90;80.70
3850;DHT22;1940;51.052;13.678;2024-01-30T08:02:31;3.80;80.60
3850;DHT22;1940;51.052;13.678;2024-01-30T08:04:56;3.90;80.60
3850;DHT22;1940;51.052;13.678;2024-01-30T08:07:22;4.10;79.90
3850;DHT22;1940;51.052;13.678;2024-01-30T08:09:47;4.20;79.90
3850;DHT22;1940;51.052;13.678;2024-01-30T08:12:13;4.40;79.10
3850;DHT22;1940;51.052;13.678;2024-01-30T08:14:39;4.40;78.80
3850;DHT22;1940;51.052;13.678;2024-01-30T08:17:05;4.50;78.50
3850;DHT22;1940;51.052;13.678;2024-01-30T08:19:32;4.80;78.10
3850;DHT22;1940;51.052;13.678;2024-01-30T08:21:58;5.10;77.00
3850;DHT22;1940;51.052;13.678;2024-01-30T08:24:23;5.50;75.90
3850;DHT22;1940;51.052;13.678;2024-01-30T08:26:49;5.80;75.10
3850;DHT22;1940;51.052;13.678;2024-01-30T08:29:14;6.10;74.00
3850;DHT22;1940;51.052;13.678;2024-01-30T08:31:40;6.40;72.80
3850;DHT22;1940;51.052;13.678;2024-01-30T08:34:05;6.60;72.40
3850;DHT22;1940;51.052;13.678;2024-01-30T08:36:31;6.60;71.80
3850;DHT22;1940;51.052;13.678;2024-01-30T08:38:56;7.00;71.20
3850;DHT22;1940;51.052;13.678;2024-01-30T08:41:22;7.30;70.40
3850;DHT22;1940;51.052;13.678;2024-01-30T08:43:47;7.60;70.00
3850;DHT22;1940;51.052;13.678;2024-01-30T08:46:13;8.30;68.50
3850;DHT22;1940;51.052;13.678;2024-01-30T08:48:42;9.10;66.50
3850;DHT22;1940;51.052;13.678;2024-01-30T08:51:07;9.80;64.20
3850;DHT22;1940;51.052;13.678;2024-01-30T08:53:34;9.90;63.10
3850;DHT22;1940;51.052;13.678;2024-01-30T08:56:00;10.00;62.90
3850;DHT22;1940;51.052;13.678;2024-01-30T08:58:25;10.10;62.60
3850;DHT22;1940;51.052;13.678;2024-01-30T09:00:50;10.10;62.40
3850;DHT22;1940;51.052;13.678;2024-01-30T09:03:18;10.40;62.30
3850;DHT22;1940;51.052;13.678;2024-01-30T09:05:43;11.10;61.10
3850;DHT22;1940;51.052;13.678;2024-01-30T09:08:09;11.00;59.80
3850;DHT22;1940;51.052;13.678;2024-01-30T09:10:34;10.70;60.70
3850;DHT22;1940;51.052;13.678;2024-01-30T09:13:00;10.90;60.90
3850;DHT22;1940;51.052;13.678;2024-01-30T09:15:25;11.00;60.00
3850;DHT22;1940;51.052;13.678;2024-01-30T09:17:51;10.90;60.40
3850;DHT22;1940;51.052;13.678;2024-01-30T09:20:16;11.00;60.40
3850;DHT22;1940;51.052;13.678;2024-01-30T09:22:42;11.20;59.90
3850;DHT22;1940;51.052;13.678;2024-01-30T09:25:07;11.10;59.80
3850;DHT22;1940;51.052;13.678;2024-01-30T09:27:33;11.40;59.30
3850;DHT22;1940;51.052;13.678;2024-01-30T09:29:58;11.50;58.70
3850;DHT22;1940;51.052;13.678;2024-01-30T09:32:24;11.50;58.80
3850;DHT22;1940;51.052;13.678;2024-01-30T09:34:49;11.50;59.00
3850;DHT22;1940;51.052;13.678;2024-01-30T09:37:15;11.50;58.70
3850;DHT22;1940;51.052;13.678;2024-01-30T09:39:42;11.80;58.40
3850;DHT22;1940;51.052;13.678;2024-01-30T09:42:25;12.50;57.30
3850;DHT22;1940;51.052;13.678;2024-01-30T09:44:51;12.40;56.30
3850;DHT22;1940;51.052;13.678;2024-01-30T09:47:18;12.10;57.00
3850;DHT22;1940;51.052;13.678;2024-01-30T09:49:44;12.20;57.20
3850;DHT22;1940;51.052;13.678;2024-01-30T09:52:09;12.20;57.00
3850;DHT22;1940;51.052;13.678;2024-01-30T09:54:36;12.00;57.90
3850;DHT22;1940;51.052;13.678;2024-01-30T09:57:03;12.30;57.00
3850;DHT22;1940;51.052;13.678;2024-01-30T09:59:29;12.50;56.70
3850;DHT22;1940;51.052;13.678;2024-01-30T10:01:54;12.60;56.40
3850;DHT22;1940;51.052;13.678;2024-01-30T10:04:20;12.50;56.30
3850;DHT22;1940;51.052;13.678;2024-01-30T10:06:46;12.60;56.50
3850;DHT22;1940;51.052;13.678;2024-01-30T10:09:12;12.60;56.30
3850;DHT22;1940;51.052;13.678;2024-01-30T10:11:38;12.60;56.20
3850;DHT22;1940;51.052;13.678;2024-01-30T10:14:05;12.30;56.30
3850;DHT22;1940;51.052;13.678;2024-01-30T10:16:31;11.70;57.60
3850;DHT22;1940;51.052;13.678;2024-01-30T10:18:56;11.70;57.70
3850;DHT22;1940;51.052;13.678;2024-01-30T10:21:22;11.70;57.70
3850;DHT22;1940;51.052;13.678;2024-01-30T10:23:47;11.30;58.60
3850;DHT22;1940;51.052;13.678;2024-01-30T10:26:13;11.60;58.40
3850;DHT22;1940;51.052;13.678;2024-01-30T10:28:39;11.90;57.80
3850;DHT22;1940;51.052;13.678;2024-01-30T10:31:04;12.20;56.80
3850;DHT22;1940;51.052;13.678;2024-01-30T10:33:30;12.10;56.50
3850;DHT22;1940;51.052;13.678;2024-01-30T10:36:00;11.70;57.10
3850;DHT22;1940;51.052;13.678;2024-01-30T10:38:29;11.60;57.30
3850;DHT22;1940;51.052;13.678;2024-01-30T10:41:00;11.40;57.70
3850;DHT22;1940;51.052;13.678;2024-01-30T10:43:35;11.00;58.40
3850;DHT22;1940;51.052;13.678;2024-01-30T10:46:10;10.80;58.90
3850;DHT22;1940;51.052;13.678;2024-01-30T10:48:42;10.70;59.20
3850;DHT22;1940;51.052;13.678;2024-01-30T10:51:10;10.60;59.40
3850;DHT22;1940;51.052;13.678;2024-01-30T10:53:36;10.80;59.30
3850;DHT22;1940;51.052;13.678;2024-01-30T10:56:03;10.90;59.10
3850;DHT22;1940;51.052;13.678;2024-01-30T10:58:29;10.70;59.20
3850;DHT22;1940;51.052;13.678;2024-01-30T11:00:55;10.70;59.20
3850;DHT22;1940;51.052;13.678;2024-01-30T11:03:21;10.70;59.30
3850;DHT22;1940;51.052;13.678;2024-01-30T11:05:52;10.80;59.60
3850;DHT22;1940;51.052;13.678;2024-01-30T11:08:26;10.50;59.60
3850;DHT22;1940;51.052;13.678;2024-01-30T11:11:00;10.10;60.80
3850;DHT22;1940;51.052;13.678;2024-01-30T11:13:32;9.80;61.50
3850;DHT22;1940;51.052;13.678;2024-01-30T11:16:04;9.30;62.60
3850;DHT22;1940;51.052;13.678;2024-01-30T11:18:31;9.10;63.20
3850;DHT22;1940;51.052;13.678;2024-01-30T11:21:01;9.10;63.70
3850;DHT22;1940;51.052;13.678;2024-01-30T11:23:30;9.20;63.40
3850;DHT22;1940;51.052;13.678;2024-01-30T11:25:56;8.90;63.70
3850;DHT22;1940;51.052;13.678;2024-01-30T11:28:23;8.70;64.30
3850;DHT22;1940;51.052;13.678;2024-01-30T11:30:48;8.70;64.90
3850;DHT22;1940;51.052;13.678;2024-01-30T11:33:30;8.70;64.20
3850;DHT22;1940;51.052;13.678;2024-01-30T11:35:58;8.70;64.60
3850;DHT22;1940;51.052;13.678;2024-01-30T11:38:28;8.80;64.30
3850;DHT22;1940;51.052;13.678;2024-01-30T11:40:54;9.00;64.00
3850;DHT22;1940;51.052;13.678;2024-01-30T11:43:23;8.80;63.80
3850;DHT22;1940;51.052;13.678;2024-01-30T11:45:49;8.50;64.40
3850;DHT22;1940;51.052;13.678;2024-01-30T11:48:15;8.40;64.90
3850;DHT22;1940;51.052;13.678;2024-01-30T11:50:40;8.50;65.10
3850;DHT22;1940;51.052;13.678;2024-01-30T11:53:06;8.50;65.00
3850;DHT22;1940;51.052;13.678;2024-01-30T11:55:32;8.40;65.10
3850;DHT22;1940;51.052;13.678;2024-01-30T11:58:00;8.30;65.30
3850;DHT22;1940;51.052;13.678;2024-01-30T12:00:26;8.20;65.60
3850;DHT22;1940;51.052;13.678;2024-01-30T12:02:53;8.20;65.80
3850;DHT22;1940;51.052;13.678;2024-01-30T12:05:22;8.10;66.00
3850;DHT22;1940;51.052;13.678;2024-01-30T12:07:47;8.00;66.30
3850;DHT22;1940;51.052;13.678;2024-01-30T12:10:13;7.80;66.40
3850;DHT22;1940;51.052;13.678;2024-01-30T12:12:42;7.80;66.70
3850;DHT22;1940;51.052;13.678;2024-01-30T12:15:08;7.70;66.70
3850;DHT22;1940;51.052;13.678;2024-01-30T12:17:37;7.60;67.20
3850;DHT22;1940;51.052;13.678;2024-01-30T12:22:39;7.60;67.50
3850;DHT22;1940;51.052;13.678;2024-01-30T12:25:09;7.50;67.60
3850;DHT22;1940;51.052;13.678;2024-01-30T12:27:38;7.50;67.50
3850;DHT22;1940;51.052;13.678;2024-01-30T12:30:11;7.40;67.80
3850;DHT22;1940;51.052;13.678;2024-01-30T12:32:44;7.30;68.10
3850;DHT22;1940;51.052;13.678;2024-01-30T12:35:10;7.30;68.70
3850;DHT22;1940;51.052;13.678;2024-01-30T12:37:36;7.40;68.20
3850;DHT22;1940;51.052;13.678;2024-01-30T12:40:02;7.60;68.10
3850;DHT22;1940;51.052;13.678;2024-01-30T12:42:28;7.60;67.80
3850;DHT22;1940;51.052;13.678;2024-01-30T12:44:54;7.60;67.70
3850;DHT22;1940;51.052;13.678;2024-01-30T12:47:21;7.60;67.70
3850;DHT22;1940;51.052;13.678;2024-01-30T12:49:47;7.70;67.60
3850;DHT22;1940;51.052;13.678;2024-01-30T12:52:16;7.70;67.50
3850;DHT22;1940;51.052;13.678;2024-01-30T12:54:44;7.60;67.50
3850;DHT22;1940;51.052;13.678;2024-01-30T12:57:10;7.40;67.60
3850;DHT22;1940;51.052;13.678;2024-01-30T12:59:35;7.30;68.30
3850;DHT22;1940;51.052;13.678;2024-01-30T13:02:01;7.30;68.40
3850;DHT22;1940;51.052;13.678;2024-01-30T13:04:28;7.30;68.30
3850;DHT22;1940;51.052;13.678;2024-01-30T13:06:54;7.40;68.20
3850;DHT22;1940;51.052;13.678;2024-01-30T13:09:19;7.50;68.10
3850;DHT22;1940;51.052;13.678;2024-01-30T13:11:45;7.60;67.70
3850;DHT22;1940;51.052;13.678;2024-01-30T13:14:11;7.50;67.50
3850;DHT22;1940;51.052;13.678;2024-01-30T13:16:36;7.40;67.50
3850;DHT22;1940;51.052;13.678;2024-01-30T13:19:02;7.40;67.80
3850;DHT22;1940;51.052;13.678;2024-01-30T13:21:28;7.30;67.70
3850;DHT22;1940;51.052;13.678;2024-01-30T13:23:53;7.30;67.60
3850;DHT22;1940;51.052;13.678;2024-01-30T13:26:20;7.30;67.80
3850;DHT22;1940;51.052;13.678;2024-01-30T13:28:46;7.30;68.00
3850;DHT22;1940;51.052;13.678;2024-01-30T13:31:12;7.30;67.90
3850;DHT22;1940;51.052;13.678;2024-01-30T13:33:37;7.40;67.90
3850;DHT22;1940;51.052;13.678;2024-01-30T13:36:03;7.50;67.60
3850;DHT22;1940;51.052;13.678;2024-01-30T13:38:29;7.50;67.60
3850;DHT22;1940;51.052;13.678;2024-01-30T13:40:54;7.30;68.10
3850;DHT22;1940;51.052;13.678;2024-01-30T13:43:19;7.10;68.60
3850;DHT22;1940;51.052;13.678;2024-01-30T13:45:45;6.90;68.80
3850;DHT22;1940;51.052;13.678;2024-01-30T13:48:11;6.70;69.80
3850;DHT22;1940;51.052;13.678;2024-01-30T13:50:37;6.70;70.00
3850;DHT22;1940;51.052;13.678;2024-01-30T13:53:03;6.50;70.40
3850;DHT22;1940;51.052;13.678;2024-01-30T13:55:29;6.40;70.90
3850;DHT22;1940;51.052;13.678;2024-01-30T13:57:55;6.20;71.30
3850;DHT22;1940;51.052;13.678;2024-01-30T14:00:21;6.20;71.60
3850;DHT22;1940;51.052;13.678;2024-01-30T14:02:48;6.20;71.60
3850;DHT22;1940;51.052;13.678;2024-01-30T14:05:13;6.10;71.80
3850;DHT22;1940;51.052;13.678;2024-01-30T14:07:40;6.10;71.80
3850;DHT22;1940;51.052;13.678;2024-01-30T14:10:09;6.10;71.80
3850;DHT22;1940;51.052;13.678;2024-01-30T14:12:36;6.00;72.00
3850;DHT22;1940;51.052;13.678;2024-01-30T14:15:01;6.00;72.30
3850;DHT22;1940;51.052;13.678;2024-01-30T14:17:26;5.90;72.40
3850;DHT22;1940;51.052;13.678;2024-01-30T14:19:52;5.90;72.50
3850;DHT22;1940;51.052;13.678;2024-01-30T14:22:17;5.80;72.70
3850;DHT22;1940;51.052;13.678;2024-01-30T14:24:43;5.90;72.70
3850;DHT22;1940;51.052;13.678;2024-01-30T14:27:10;5.90;72.60
3850;DHT22;1940;51.052;13.678;2024-01-30T14:29:35;6.00;72.60
3850;DHT22;1940;51.052;13.678;2024-01-30T14:32:01;6.00;72.60
3850;DHT22;1940;51.052;13.678;2024-01-30T14:34:27;6.10;72.40
3850;DHT22;1940;51.052;13.678;2024-01-30T14:36:52;6.10;72.10
3850;DHT22;1940;51.052;13.678;2024-01-30T14:39:18;6.10;72.20
3850;DHT22;1940;51.052;13.678;2024-01-30T14:41:44;6.00;72.60
3850;DHT22;1940;51.052;13.678;2024-01-30T14:44:09;5.90;72.60
3850;DHT22;1940;51.052;13.678;2024-01-30T14:46:36;5.70;72.90
3850;DHT22;1940;51.052;13.678;2024-01-30T14:49:02;5.70;73.30
3850;DHT22;1940;51.052;13.678;2024-01-30T14:51:31;5.60;73.40
3850;DHT22;1940;51.052;13.678;2024-01-30T14:53:56;5.60;73.50
3850;DHT22;1940;51.052;13.678;2024-01-30T14:56:22;5.50;73.90
3850;DHT22;1940;51.052;13.678;2024-01-30T14:58:48;5.50;73.90
3850;DHT22;1940;51.052;13.678;2024-01-30T15:01:13;5.30;74.40
3850;DHT22;1940;51.052;13.678;2024-01-30T15:03:39;5.30;74.60
3850;DHT22;1940;51.052;13.678;2024-01-30T15:06:05;5.30;74.80
3850;DHT22;1940;51.052;13.678;2024-01-30T15:08:31;5.20;74.90
3850;DHT22;1940;51.052;13.678;2024-01-30T15:10:58;5.20;74.60
3850;DHT22;1940;51.052;13.678;2024-01-30T15:13:23;5.10;74.90
3850;DHT22;1940;51.052;13.678;2024-01-30T15:15:49;5.00;75.10
3850;DHT22;1940;51.052;13.678;2024-01-30T15:18:17;4.90;75.60
3850;DHT22;1940;51.052;13.678;2024-01-30T15:20:43;4.90;75.70
3850;DHT22;1940;51.052;13.678;2024-01-30T15:23:09;4.80;75.80
3850;DHT22;1940;51.052;13.678;2024-01-30T15:25:34;4.50;76.30
3850;DHT22;1940;51.052;13.678;2024-01-30T15:28:00;4.30;77.30
3850;DHT22;1940;51.052;13.678;2024-01-30T15:30:26;4.30;77.60
3850;DHT22;1940;51.052;13.678;2024-01-30T15:32:51;4.30;77.60
3850;DHT22;1940;51.052;13.678;2024-01-30T15:35:16;4.10;77.80
3850;DHT22;1940;51.052;13.678;2024-01-30T15:37:42;3.90;78.40
3850;DHT22;1940;51.052;13.678;2024-01-30T15:40:08;3.90;78.90
3850;DHT22;1940;51.052;13.678;2024-01-30T15:42:34;3.90;78.90
3850;DHT22;1940;51.052;13.678;2024-01-30T15:44:59;4.00;78.80
3850;DHT22;1940;51.052;13.678;2024-01-30T15:47:25;3.90;78.70
3850;DHT22;1940;51.052;13.678;2024-01-30T15:49:51;3.90;78.90
3850;DHT22;1940;51.052;13.678;2024-01-30T15:52:16;3.80;79.00
3850;DHT22;1940;51.052;13.678;2024-01-30T15:54:43;3.70;79.30